Time;durP1;ratioP1;P1;durP2;ratioP2;P2;SDS_P1;SDS_P2;PMS_P1;PMS_P2;Temp;Humidity;BMP_temperature;BMP_pressure;BME280_temperature;BME280_humidity;BME280_pressure;Samples;Min_cycle;Max_cycle;Signal;HPM_P1;HPM_P2
2021/01/15 00:01:08;;;;;;;0.10;0.10;;;-3.80;99.90;;;;;;5009688;28;20195;-76
2021/01/15 00:03:35;;;;;;;0.10;0.10;;;-3.80;99.90;;;;;;5009812;28;20689;-77
2021/01/15 00:06:05;;;;;;;0.30;0.30;;;-3.80;99.90;;;;;;5009695;28;20217;-76
2021/01/15 00:08:39;;;;;;;0.10;0.10;;;-4.00;99.90;;;;;;5009598;28;20178;-77
2021/01/15 00:11:16;;;;;;;0.10;0.10;;;-4.10;99.90;;;;;;5009422;28;20225;-76
2021/01/15 00:13:42;;;;;;;1.65;1.52;;;-4.10;99.90;;;;;;5009284;28;20707;-77
2021/01/15 00:16:19;;;;;;;0.13;0.13;;;-3.90;99.90;;;;;;5032465;28;20232;-76
2021/01/15 00:18:45;;;;;;;0.10;0.10;;;-3.80;99.90;;;;;;5028900;28;20162;-76
2021/01/15 00:21:24;;;;;;;0.10;0.10;;;-4.00;99.90;;;;;;5028952;28;20272;-76
2021/01/15 00:23:58;;;;;;;0.17;0.17;;;-3.90;99.90;;;;;;5028933;28;20162;-77
2021/01/15 00:26:26;;;;;;;0.10;0.10;;;-3.90;99.90;;;;;;5028433;28;20165;-76
2021/01/15 00:28:54;;;;;;;0.20;0.20;;;-3.90;99.90;;;;;;5028889;28;20184;-76
2021/01/15 00:31:28;;;;;;;4.82;2.58;;;-4.00;99.90;;;;;;5039002;28;20281;-76
2021/01/15 00:33:54;;;;;;;0.13;0.13;;;-4.20;99.90;;;;;;5023924;28;20285;-76
2021/01/15 00:36:20;;;;;;;0.17;0.17;;;-4.40;99.90;;;;;;5006578;28;20166;-76
2021/01/15 00:38:46;;;;;;;0.10;0.10;;;-4.40;99.90;;;;;;5007468;28;20166;-75
2021/01/15 00:41:12;;;;;;;0.20;0.20;;;-4.20;99.90;;;;;;5023843;28;20318;-75
2021/01/15 00:43:38;;;;;;;0.20;0.20;;;-4.20;99.90;;;;;;5023944;28;20316;-75
2021/01/15 00:46:10;;;;;;;0.13;0.13;;;-4.30;99.90;;;;;;5008918;28;20222;-75
2021/01/15 00:48:36;;;;;;;0.10;0.10;;;-4.50;99.90;;;;;;5019000;28;20257;-75
2021/01/15 00:51:12;;;;;;;0.30;0.30;;;-4.80;99.90;;;;;;5027885;28;20198;-76
2021/01/15 00:53:37;;;;;;;0.90;0.90;;;-4.70;99.90;;;;;;5026825;28;20245;-75
2021/01/15 00:56:04;;;;;;;0.20;0.20;;;-4.70;99.90;;;;;;5026739;28;20181;-76
2021/01/15 00:58:30;;;;;;;0.20;0.20;;;-4.50;99.90;;;;;;5028548;28;20249;-75
2021/01/15 01:00:56;;;;;;;0.73;0.73;;;-4.50;99.90;;;;;;5027033;28;20316;-76
2021/01/15 01:03:22;;;;;;;0.10;0.10;;;-4.60;99.90;;;;;;5043477;28;20242;-75
2021/01/15 01:05:48;;;;;;;1.23;1.23;;;-4.80;99.90;;;;;;5043463;28;20188;-75
2021/01/15 01:08:14;;;;;;;0.17;0.17;;;-5.00;99.90;;;;;;5027027;28;20626;-76
2021/01/15 01:10:40;;;;;;;0.55;0.55;;;-5.10;99.90;;;;;;5028217;28;20220;-76
2021/01/15 01:13:06;;;;;;;0.30;0.30;;;-5.20;99.90;;;;;;5043373;28;20209;-76
2021/01/15 01:15:32;;;;;;;0.85;0.85;;;-5.30;99.90;;;;;;5028211;28;20159;-75
2021/01/15 01:17:58;;;;;;;0.20;0.20;;;-5.30;99.90;;;;;;5026808;28;20166;-75
2021/01/15 01:20:24;;;;;;;0.40;0.40;;;-5.40;99.90;;;;;;5028087;28;20210;-75
2021/01/15 01:22:50;;;;;;;0.20;0.20;;;-5.40;99.90;;;;;;5025899;28;20185;-75
2021/01/15 01:25:17;;;;;;;0.20;0.20;;;-5.30;99.90;;;;;;5028028;28;20177;-76
2021/01/15 01:27:44;;;;;;;0.45;0.45;;;-5.40;99.90;;;;;;5031487;28;20166;-75
2021/01/15 01:30:11;;;;;;;0.20;0.20;;;-5.60;99.90;;;;;;5032546;28;20186;-75
2021/01/15 01:32:37;;;;;;;1.02;0.85;;;-5.60;99.90;;;;;;5031435;28;20166;-75
2021/01/15 01:35:05;;;;;;;0.10;0.10;;;-5.50;99.90;;;;;;5044741;28;20548;-75
2021/01/15 01:37:31;;;;;;;0.10;0.10;;;-5.40;99.90;;;;;;5025676;28;20198;-75
2021/01/15 01:39:57;;;;;;;0.20;0.20;;;-5.50;99.90;;;;;;5045676;28;20251;-76
2021/01/15 01:42:23;;;;;;;13.95;4.05;;;-5.50;99.90;;;;;;5031309;28;20233;-75
2021/01/15 01:44:49;;;;;;;0.73;0.73;;;-5.50;99.90;;;;;;5031655;28;20216;-76
2021/01/15 01:47:15;;;;;;;0.43;0.43;;;-5.50;99.90;;;;;;5046702;28;20235;-76
2021/01/15 01:49:41;;;;;;;0.17;0.17;;;-5.50;99.90;;;;;;5046531;28;20181;-75
2021/01/15 01:52:07;;;;;;;0.30;0.30;;;-5.60;99.90;;;;;;5031556;28;20158;-75
2021/01/15 01:54:35;;;;;;;0.73;0.73;;;-5.50;99.90;;;;;;5031561;28;20185;-76
2021/01/15 01:57:04;;;;;;;0.30;0.30;;;-5.50;99.90;;;;;;5046914;28;20249;-76
2021/01/15 01:59:31;;;;;;;0.68;0.68;;;-5.50;99.90;;;;;;5030152;28;20172;-76
2021/01/15 02:01:57;;;;;;;0.10;0.10;;;-5.60;99.90;;;;;;5031612;28;20159;-76
2021/01/15 02:04:23;;;;;;;0.20;0.20;;;-5.50;99.90;;;;;;5031531;28;20181;-76
2021/01/15 02:06:49;;;;;;;0.10;0.10;;;-5.50;99.90;;;;;;5031379;28;20189;-75
2021/01/15 02:09:25;;;;;;;0.10;0.10;;;-5.50;99.90;;;;;;5030986;28;20244;-75
2021/01/15 02:12:15;;;;;;;0.10;0.10;;;-5.30;99.90;;;;;;5031317;28;20516;-75
2021/01/15 02:15:01;;;;;;;0.20;0.20;;;-5.00;99.90;;;;;;5029474;28;20721;-75
2021/01/15 02:17:34;;;;;;;0.40;0.40;;;-5.00;99.90;;;;;;5046478;28;20257;-75
2021/01/15 02:20:44;;;;;;;1.40;1.40;;;-5.20;99.90;;;;;;5046354;28;20208;-75
2021/01/15 02:23:33;;;;;;;0.80;0.80;;;-5.40;99.90;;;;;;5029910;28;20674;-76
2021/01/15 02:26:04;;;;;;;0.10;0.10;;;-5.40;99.90;;;;;;5026038;28;20230;-76
2021/01/15 02:28:49;;;;;;;0.10;0.10;;;-5.40;99.90;;;;;;5046464;28;20180;-76
2021/01/15 02:31:45;;;;;;;0.10;0.10;;;-5.50;99.90;;;;;;5046149;28;20205;-76
2021/01/15 02:34:39;;;;;;;0.10;0.10;;;-5.50;99.90;;;;;;5046088;28;20190;-77
2021/01/15 02:37:08;;;;;;;0.25;0.25;;;-5.40;99.90;;;;;;5030827;28;20166;-76
2021/01/15 02:39:48;;;;;;;0.20;0.20;;;-5.60;99.90;;;;;;5030626;28;20159;-76
2021/01/15 02:42:16;;;;;;;3.53;2.17;;;-5.80;99.90;;;;;;5045765;28;20253;-76
2021/01/15 02:44:48;;;;;;;0.40;0.40;;;-5.90;99.90;;;;;;5030452;28;20163;-75
2021/01/15 02:47:28;;;;;;;0.25;0.25;;;-5.90;99.90;;;;;;5030584;28;20197;-75
2021/01/15 02:49:57;;;;;;;0.20;0.20;;;-6.10;99.90;;;;;;5030059;28;20305;-77
2021/01/15 02:52:24;;;;;;;0.30;0.30;;;-6.00;99.90;;;;;;5030608;28;20184;-76
2021/01/15 02:54:50;;;;;;;0.10;0.10;;;-5.80;99.90;;;;;;5030399;28;20210;-74
2021/01/15 02:57:19;;;;;;;1.95;1.85;;;-5.90;99.90;;;;;;5045649;28;20166;-76
2021/01/15 02:59:45;;;;;;;0.28;0.28;;;-5.70;99.90;;;;;;5030098;28;20190;-78
2021/01/15 03:02:44;;;;;;;3.53;3.17;;;-5.70;99.90;;;;;;5028992;28;20166;-77
2021/01/15 03:05:20;;;;;;;1.90;1.85;;;-5.50;99.90;;;;;;5030201;28;20174;-77
2021/01/15 03:07:47;;;;;;;0.63;0.63;;;-5.40;99.90;;;;;;5028751;28;20257;-76
2021/01/15 03:10:14;;;;;;;0.20;0.20;;;-5.40;99.90;;;;;;5028967;28;20261;-77
2021/01/15 03:12:42;;;;;;;0.20;0.20;;;-5.50;99.90;;;;;;5045433;28;20182;-76
2021/01/15 03:15:10;;;;;;;0.13;0.13;;;-5.50;99.90;;;;;;5045309;28;20166;-76
2021/01/15 03:17:41;;;;;;;0.90;0.90;;;-5.50;99.90;;;;;;5030147;28;20173;-76
2021/01/15 03:20:10;;;;;;;0.17;0.17;;;-5.70;99.90;;;;;;5029962;28;20192;-76
2021/01/15 03:22:39;;;;;;;0.73;0.68;;;-6.00;99.90;;;;;;5028528;28;20205;-76
2021/01/15 03:25:05;;;;;;;0.20;0.20;;;-6.10;99.90;;;;;;5029816;28;20230;-76
2021/01/15 03:27:54;;;;;;;0.22;0.22;;;-6.30;99.90;;;;;;5029805;28;20178;-76
2021/01/15 03:30:25;;;;;;;0.20;0.20;;;-6.40;99.90;;;;;;5029918;28;20220;-76
2021/01/15 03:32:54;;;;;;;0.17;0.17;;;-6.20;99.90;;;;;;5044888;28;20162;-77
2021/01/15 03:35:23;;;;;;;0.35;0.35;;;-6.20;99.90;;;;;;5029739;28;20178;-76
2021/01/15 03:37:58;;;;;;;0.43;0.43;;;-6.40;99.90;;;;;;5045071;28;20253;-75
2021/01/15 03:40:26;;;;;;;0.70;0.70;;;-6.50;99.90;;;;;;5029514;28;20193;-77
2021/01/15 03:42:52;;;;;;;0.20;0.20;;;-6.50;99.90;;;;;;5044361;28;20737;-76
2021/01/15 03:45:19;;;;;;;0.20;0.20;;;-6.50;99.90;;;;;;5044470;28;20249;-76
2021/01/15 03:47:45;;;;;;;0.10;0.10;;;-6.50;99.90;;;;;;5027900;28;20201;-76
2021/01/15 03:50:12;;;;;;;0.20;0.20;;;-6.40;99.90;;;;;;5029096;28;20753;-77
2021/01/15 03:52:38;;;;;;;0.35;0.35;;;-6.30;99.90;;;;;;5029199;28;20215;-75
2021/01/15 03:55:06;;;;;;;0.10;0.10;;;-6.20;99.90;;;;;;5027792;28;20234;-76
2021/01/15 03:57:32;;;;;;;0.63;0.63;;;-6.00;99.90;;;;;;5044113;28;20301;-76
2021/01/15 03:59:58;;;;;;;0.28;0.28;;;-6.10;99.90;;;;;;5026859;28;20194;-76
2021/01/15 04:02:24;;;;;;;0.10;0.10;;;-6.20;99.90;;;;;;5029092;28;20197;-76
2021/01/15 04:04:51;;;;;;;0.10;0.10;;;-6.50;99.90;;;;;;5029214;28;20224;-76
2021/01/15 04:07:21;;;;;;;0.20;0.20;;;-6.50;99.90;;;;;;5027918;28;20220;-76
2021/01/15 04:09:47;;;;;;;0.17;0.17;;;-6.50;99.90;;;;;;5029221;28;20194;-76
2021/01/15 04:12:13;;;;;;;0.13;0.13;;;-6.60;99.90;;;;;;5027756;28;20165;-76
2021/01/15 04:14:43;;;;;;;4.47;2.95;;;-6.60;99.90;;;;;;5029466;28;20623;-76
2021/01/15 04:17:09;;;;;;;1.20;1.20;;;-6.40;99.90;;;;;;5045065;28;20185;-76
2021/01/15 04:19:36;;;;;;;0.20;0.20;;;-6.30;99.90;;;;;;5030632;28;20159;-76
2021/01/15 04:22:01;;;;;;;0.47;0.47;;;-6.20;99.90;;;;;;5029869;28;20164;-76
2021/01/15 04:24:27;;;;;;;0.20;0.20;;;-5.90;99.90;;;;;;5046091;28;20166;-75
2021/01/15 04:26:58;;;;;;;0.52;0.52;;;-5.80;99.90;;;;;;5030403;28;20155;-76
2021/01/15 04:29:25;;;;;;;0.10;0.10;;;-5.80;99.90;;;;;;5029259;28;20180;-76
2021/01/15 04:31:51;;;;;;;0.93;0.93;;;-5.80;99.90;;;;;;5044049;28;20261;-77
2021/01/15 04:34:18;;;;;;;0.10;0.10;;;-5.90;99.90;;;;;;5044192;28;20201;-76
2021/01/15 04:36:45;;;;;;;0.10;0.10;;;-6.00;99.90;;;;;;5029165;28;20181;-76
2021/01/15 04:39:13;;;;;;;0.35;0.35;;;-6.20;99.90;;;;;;5029175;28;20161;-76
2021/01/15 04:41:43;;;;;;;0.10;0.10;;;-6.20;99.90;;;;;;5029482;28;20214;-76
2021/01/15 04:44:09;;;;;;;3.10;1.85;;;-6.10;99.90;;;;;;5028788;28;20180;-76
2021/01/15 04:46:39;;;;;;;0.20;0.20;;;-6.10;99.90;;;;;;5043912;28;20181;-75
2021/01/15 04:49:09;;;;;;;0.47;0.47;;;-6.40;99.90;;;;;;5043698;28;20174;-75
2021/01/15 04:51:37;;;;;;;0.17;0.17;;;-6.50;99.90;;;;;;5028223;28;20269;-77
2021/01/15 04:54:10;;;;;;;0.20;0.20;;;-6.30;99.90;;;;;;5028482;28;20193;-76
2021/01/15 04:56:51;;;;;;;0.63;0.63;;;-6.30;99.90;;;;;;5028840;28;20154;-76
2021/01/15 04:59:18;;;;;;;0.20;0.20;;;-6.30;99.90;;;;;;5028304;28;20164;-76
2021/01/15 05:01:46;;;;;;;0.10;0.10;;;-6.50;99.90;;;;;;5027172;28;20348;-76
2021/01/15 05:04:14;;;;;;;0.40;0.40;;;-6.60;99.90;;;;;;5028431;28;20189;-75
2021/01/15 05:06:47;;;;;;;0.30;0.30;;;-6.50;99.90;;;;;;5028681;28;20165;-76
2021/01/15 05:09:19;;;;;;;0.10;0.10;;;-6.40;99.90;;;;;;5028252;28;20170;-76
2021/01/15 05:11:46;;;;;;;0.20;0.20;;;-6.30;99.90;;;;;;5044665;28;20198;-75
2021/01/15 05:14:14;;;;;;;0.77;0.77;;;-6.50;99.90;;;;;;5032469;28;20190;-75
2021/01/15 05:16:42;;;;;;;0.40;0.40;;;-6.70;99.90;;;;;;5032522;28;20335;-76
2021/01/15 05:19:10;;;;;;;0.77;0.73;;;-6.90;99.90;;;;;;5030955;28;20604;-76
2021/01/15 05:21:37;;;;;;;0.40;0.40;;;-7.00;99.90;;;;;;5031991;28;20190;-76
2021/01/15 05:24:06;;;;;;;0.33;0.33;;;-7.10;99.90;;;;;;5032513;28;20186;-76
2021/01/15 05:26:39;;;;;;;0.83;0.83;;;-6.80;99.90;;;;;;5047287;28;20174;-75
2021/01/15 05:29:07;;;;;;;0.20;0.20;;;-6.80;99.90;;;;;;5047149;28;20182;-76
2021/01/15 05:31:49;;;;;;;0.20;0.20;;;-6.90;99.90;;;;;;5047185;28;20213;-75
2021/01/15 05:34:15;;;;;;;8.85;2.88;;;-6.80;99.90;;;;;;5032090;28;20190;-75
2021/01/15 05:36:42;;;;;;;0.27;0.27;;;-6.70;99.90;;;;;;5047446;28;20679;-75
2021/01/15 05:39:17;;;;;;;1.47;1.47;;;-6.60;99.90;;;;;;5032113;28;20170;-76
2021/01/15 05:41:44;;;;;;;0.10;0.10;;;-6.60;99.90;;;;;;5047054;28;20224;-76
2021/01/15 05:44:23;;;;;;;0.30;0.30;;;-6.70;99.90;;;;;;5030725;28;20228;-76
2021/01/15 05:46:48;;;;;;;0.20;0.20;;;-6.80;99.90;;;;;;5047322;28;20174;-75
2021/01/15 05:49:14;;;;;;;0.10;0.10;;;-7.00;99.90;;;;;;5031849;28;20192;-75
2021/01/15 05:51:42;;;;;;;0.33;0.33;;;-7.10;99.90;;;;;;5031631;28;20213;-76
2021/01/15 05:54:09;;;;;;;0.20;0.20;;;-6.90;99.90;;;;;;5031510;28;20221;-75
2021/01/15 05:56:39;;;;;;;0.20;0.20;;;-6.90;99.90;;;;;;5031820;28;20162;-76
2021/01/15 05:59:18;;;;;;;0.30;0.30;;;-6.90;99.90;;;;;;5031964;28;20166;-76
2021/01/15 06:01:47;;;;;;;0.10;0.10;;;-6.70;99.90;;;;;;5047061;28;20229;-77
2021/01/15 06:04:17;;;;;;;0.38;0.38;;;-6.70;99.90;;;;;;5047010;28;20514;-76
2021/01/15 06:06:44;;;;;;;1.17;1.17;;;-6.80;99.90;;;;;;5046883;28;20318;-76
2021/01/15 06:09:12;;;;;;;0.73;0.73;;;-7.00;99.90;;;;;;5032065;28;20166;-76
2021/01/15 06:11:40;;;;;;;0.40;0.40;;;-7.00;99.90;;;;;;5029895;28;20205;-77
2021/01/15 06:14:18;;;;;;;1.03;0.90;;;-6.80;99.90;;;;;;5046253;28;20194;-76
2021/01/15 06:16:44;;;;;;;0.20;0.20;;;-6.90;99.90;;;;;;5046856;28;20192;-76
2021/01/15 06:19:10;;;;;;;0.20;0.20;;;-7.00;99.90;;;;;;5031755;28;20245;-75
2021/01/15 06:21:36;;;;;;;0.20;0.20;;;-7.00;99.90;;;;;;5030176;28;20205;-76
2021/01/15 06:24:05;;;;;;;0.20;0.20;;;-7.00;99.90;;;;;;5030659;28;20613;-75
2021/01/15 06:26:39;;;;;;;0.20;0.20;;;-7.10;99.90;;;;;;5030868;28;20162;-76
2021/01/15 06:29:10;;;;;;;0.30;0.30;;;-7.10;99.90;;;;;;5030579;28;20158;-76
2021/01/15 06:31:51;;;;;;;14.30;1.95;;;-7.00;99.90;;;;;;5029459;28;20201;-76
2021/01/15 06:34:18;;;;;;;0.40;0.40;;;-6.80;99.90;;;;;;5030623;28;20193;-75
2021/01/15 06:36:52;;;;;;;0.50;0.50;;;-6.80;99.90;;;;;;5029590;28;20162;-76
2021/01/15 06:39:20;;;;;;;0.10;0.10;;;-6.70;99.90;;;;;;5029287;28;20158;-76
2021/01/15 06:41:46;;;;;;;0.13;0.13;;;-6.70;99.90;;;;;;5030322;28;20225;-76
2021/01/15 06:44:17;;;;;;;0.10;0.10;;;-6.60;99.90;;;;;;5045844;28;20197;-76
2021/01/15 06:46:45;;;;;;;0.63;0.63;;;-6.50;99.90;;;;;;5045871;28;20650;-76
2021/01/15 06:49:17;;;;;;;0.10;0.10;;;-6.50;99.90;;;;;;5030558;28;20193;-74
2021/01/15 06:52:13;;;;;;;0.20;0.20;;;-6.40;99.90;;;;;;5029939;28;20205;-76
2021/01/15 06:54:45;;;;;;;0.17;0.17;;;-6.40;99.90;;;;;;5030219;28;20217;-76
2021/01/15 06:57:15;;;;;;;0.30;0.30;;;-6.50;99.90;;;;;;5029078;28;20218;-76
2021/01/15 06:59:51;;;;;;;0.17;0.17;;;-6.60;99.90;;;;;;5045743;28;20190;-80
2021/01/15 07:02:47;;;;;;;0.30;0.30;;;-6.60;99.90;;;;;;5043360;28;20213;-76
2021/01/15 07:05:18;;;;;;;0.20;0.20;;;-6.50;99.90;;;;;;5037908;28;20170;-77
2021/01/15 07:07:46;;;;;;;0.20;0.20;;;-6.30;99.90;;;;;;5030057;28;20269;-78
2021/01/15 07:10:12;;;;;;;0.20;0.20;;;-6.20;99.90;;;;;;5010510;28;20254;-78
2021/01/15 07:12:42;;;;;;;0.30;0.30;;;-6.20;99.90;;;;;;5051077;28;20197;-78
2021/01/15 07:15:16;;;;;;;0.75;0.75;;;-6.20;99.90;;;;;;5055084;28;20538;-77
2021/01/15 07:17:47;;;;;;;0.17;0.17;;;-6.30;99.90;;;;;;5043974;28;20178;-77
2021/01/15 07:20:18;;;;;;;0.35;0.35;;;-6.30;99.90;;;;;;5044477;28;20236;-77
2021/01/15 07:22:54;;;;;;;0.20;0.20;;;-6.20;99.90;;;;;;5048430;28;20189;-75
2021/01/15 07:25:22;;;;;;;0.20;0.20;;;-6.10;99.90;;;;;;5049807;28;20153;-77
2021/01/15 07:27:49;;;;;;;0.20;0.20;;;-5.50;99.90;;;;;;5048219;28;20256;-77
2021/01/15 07:30:29;;;;;;;0.10;0.10;;;-5.30;99.90;;;;;;5048420;28;20177;-76
2021/01/15 07:32:56;;;;;;;0.20;0.20;;;-5.30;99.90;;;;;;5049571;28;20200;-76
2021/01/15 07:35:27;;;;;;;0.75;0.75;;;-5.20;99.90;;;;;;5048413;28;20153;-77
2021/01/15 07:38:12;;;;;;;0.20;0.20;;;-5.10;99.90;;;;;;5032030;28;20229;-77
2021/01/15 07:40:39;;;;;;;0.63;0.63;;;-4.90;99.90;;;;;;5044646;28;20181;-77
2021/01/15 07:43:07;;;;;;;0.10;0.10;;;-4.90;99.90;;;;;;5027683;28;20233;-74
2021/01/15 07:45:43;;;;;;;0.10;0.10;;;-4.70;99.90;;;;;;5027928;28;20245;-74
2021/01/15 07:48:09;;;;;;;0.15;0.15;;;-4.50;99.90;;;;;;5029111;28;20200;-74
2021/01/15 07:50:40;;;;;;;0.30;0.30;;;-4.20;99.90;;;;;;5044304;28;20205;-81
2021/01/15 07:53:21;;;;;;;0.47;0.47;;;-4.10;99.90;;;;;;5029007;28;20194;-78
2021/01/15 07:56:02;;;;;;;0.20;0.20;;;-4.00;99.90;;;;;;5027739;28;20154;-78
2021/01/15 07:58:39;;;;;;;0.73;0.73;;;-3.90;99.90;;;;;;5026576;28;20197;-77
2021/01/15 08:01:11;;;;;;;0.10;0.10;;;-3.60;99.90;;;;;;5041045;28;20165;-77
2021/01/15 08:03:54;;;;;;;0.25;0.25;;;-3.60;99.90;;;;;;5027775;28;20180;-77
2021/01/15 08:06:21;;;;;;;0.10;0.10;;;-3.40;99.90;;;;;;5018815;28;20666;-77
2021/01/15 08:09:06;;;;;;;0.10;0.10;;;-3.10;99.90;;;;;;5023149;28;20198;-79
2021/01/15 08:11:36;;;;;;;0.13;0.13;;;-2.70;99.90;;;;;;5015620;28;20178;-78
2021/01/15 08:14:12;;;;;;;0.10;0.10;;;-2.50;99.90;;;;;;5019095;28;20232;-77
2021/01/15 08:16:44;;;;;;;0.20;0.20;;;-2.00;99.90;;;;;;5017504;28;20212;-80
2021/01/15 08:19:17;;;;;;;0.20;0.20;;;-1.70;99.90;;;;;;5022154;28;20204;-81
2021/01/15 08:21:45;;;;;;;0.10;0.10;;;-1.70;99.90;;;;;;5039262;28;20228;-77
2021/01/15 08:24:11;;;;;;;0.25;0.25;;;-1.60;99.90;;;;;;5022877;28;20590;-79
2021/01/15 08:26:58;;;;;;;0.10;0.10;;;-1.10;99.90;;;;;;5021844;28;20184;-80
2021/01/15 08:29:28;;;;;;;0.00;0.00;;;0.60;99.90;;;;;;5022388;28;20221;-80
2021/01/15 08:31:59;;;;;;;0.20;0.20;;;2.30;99.90;;;;;;5020844;28;20185;-79
2021/01/15 08:34:32;;;;;;;0.00;0.00;;;4.00;99.90;;;;;;5021185;28;20206;-79
2021/01/15 08:37:00;;;;;;;0.10;0.10;;;5.50;99.90;;;;;;5016890;28;20185;-78
2021/01/15 08:39:26;;;;;;;0.10;0.10;;;5.70;99.90;;;;;;5019172;28;20745;-80
2021/01/15 08:41:58;;;;;;;0.00;0.00;;;6.80;99.90;;;;;;5020210;28;20221;-81
2021/01/15 08:44:34;;;;;;;0.30;0.30;;;7.40;99.90;;;;;;5028421;28;20162;-78
2021/01/15 08:47:07;;;;;;;0.85;0.82;;;9.40;99.90;;;;;;5019844;28;20650;-78
2021/01/15 08:49:33;;;;;;;1.20;1.10;;;10.50;99.90;;;;;;5026890;28;20229;-78
2021/01/15 08:52:00;;;;;;;1.08;0.98;;;10.60;99.90;;;;;;5026893;28;20177;-78
2021/01/15 08:54:28;;;;;;;1.05;1.00;;;10.90;99.90;;;;;;5043215;28;20198;-78
2021/01/15 08:56:55;;;;;;;0.63;0.63;;;11.40;99.90;;;;;;5028399;28;20159;-79
2021/01/15 08:59:29;;;;;;;1.02;1.02;;;12.20;99.90;;;;;;5028233;28;20532;-79
2021/01/15 09:02:00;;;;;;;0.98;0.93;;;12.30;99.90;;;;;;5026937;28;20174;-78
2021/01/15 09:04:29;;;;;;;2.47;2.28;;;11.90;99.90;;;;;;5042572;28;20162;-79
2021/01/15 09:06:57;;;;;;;0.75;0.75;;;10.90;99.90;;;;;;5027065;28;20173;-79
2021/01/15 09:09:25;;;;;;;1.42;1.33;;;10.20;99.90;;;;;;5027720;28;20201;-79
2021/01/15 09:11:52;;;;;;;1.02;1.00;;;9.60;99.90;;;;;;5028329;28;20240;-79
2021/01/15 09:14:20;;;;;;;2.65;0.90;;;9.00;99.90;;;;;;5028443;28;20190;-79
2021/01/15 09:16:48;;;;;;;0.68;0.68;;;7.10;99.90;;;;;;5014434;28;20229;-79
2021/01/15 09:19:15;;;;;;;2.30;2.20;;;5.90;99.90;;;;;;5024869;28;20186;-80
2021/01/15 09:22:07;;;;;;;0.20;0.20;;;6.00;99.90;;;;;;5028817;28;20256;-80
2021/01/15 09:24:35;;;;;;;1.05;1.02;;;6.50;99.90;;;;;;5028877;28;20220;-78
2021/01/15 09:27:06;;;;;;;2.40;1.80;;;6.50;99.90;;;;;;5027681;28;20224;-78
2021/01/15 09:29:34;;;;;;;1.95;1.85;;;6.10;99.90;;;;;;5027605;28;20162;-79
2021/01/15 09:32:01;;;;;;;1.33;1.33;;;6.20;99.90;;;;;;5015871;28;20206;-75
2021/01/15 09:34:30;;;;;;;0.20;0.20;;;6.50;99.90;;;;;;5007052;28;20233;-74
2021/01/15 09:36:56;;;;;;;1.60;1.50;;;6.30;99.90;;;;;;5027450;28;20651;-73
2021/01/15 09:39:23;;;;;;;1.17;0.98;;;6.30;99.90;;;;;;5027979;28;20251;-72
2021/01/15 09:41:53;;;;;;;2.53;1.45;;;6.30;99.90;;;;;;5028165;28;20217;-73
2021/01/15 09:44:20;;;;;;;0.20;0.20;;;6.90;99.90;;;;;;5027572;28;20188;-73
2021/01/15 09:46:47;;;;;;;1.88;1.83;;;7.40;99.90;;;;;;5028430;28;20170;-71
2021/01/15 09:49:14;;;;;;;1.75;0.73;;;7.60;99.90;;;;;;5023162;28;20167;-71
2021/01/15 09:51:40;;;;;;;1.83;1.70;;;7.70;99.90;;;;;;5009034;28;20159;-71
2021/01/15 09:54:07;;;;;;;0.63;0.63;;;7.60;99.90;;;;;;5022740;28;20274;-71
2021/01/15 09:56:40;;;;;;;0.47;0.47;;;8.00;99.90;;;;;;5007484;28;20182;-71
2021/01/15 09:59:08;;;;;;;0.32;0.32;;;7.50;99.90;;;;;;5009392;28;20155;-72
2021/01/15 10:01:34;;;;;;;0.10;0.10;;;7.80;99.90;;;;;;5011173;28;20616;-72
2021/01/15 10:04:00;;;;;;;0.20;0.20;;;8.40;99.90;;;;;;5011199;28;20195;-72
2021/01/15 10:06:27;;;;;;;7.38;1.23;;;8.50;99.90;;;;;;5025890;28;20174;-70
2021/01/15 10:08:55;;;;;;;1.30;1.02;;;8.10;99.90;;;;;;5030024;28;20220;-71
2021/01/15 10:11:25;;;;;;;0.82;0.82;;;7.40;99.90;;;;;;5021718;28;20268;-71
2021/01/15 10:13:57;;;;;;;0.73;0.73;;;6.80;99.90;;;;;;5015718;28;20222;-71
2021/01/15 10:16:24;;;;;;;0.35;0.35;;;6.30;99.90;;;;;;5009901;28;20205;-72
2021/01/15 10:18:51;;;;;;;1.10;0.95;;;6.40;99.90;;;;;;5011228;28;20203;-72
2021/01/15 10:21:24;;;;;;;0.60;0.60;;;6.40;99.90;;;;;;5015550;28;20202;-72
2021/01/15 10:23:51;;;;;;;0.20;0.20;;;5.80;99.90;;;;;;5030681;28;20717;-73
2021/01/15 10:26:23;;;;;;;12.52;1.85;;;5.60;99.90;;;;;;5030925;28;20177;-73
2021/01/15 10:28:49;;;;;;;1.25;0.93;;;6.00;99.90;;;;;;5030540;28;20189;-74
2021/01/15 10:31:15;;;;;;;0.52;0.52;;;6.10;99.90;;;;;;5029024;28;20226;-73
2021/01/15 10:33:41;;;;;;;1.48;1.38;;;6.50;99.90;;;;;;5029329;28;20679;-73
2021/01/15 10:36:08;;;;;;;0.98;0.98;;;7.90;99.90;;;;;;5030474;28;20283;-74
2021/01/15 10:38:34;;;;;;;4.47;2.83;;;9.50;99.90;;;;;;5029024;28;20166;-75
2021/01/15 10:41:01;;;;;;;2.90;2.70;;;11.60;99.90;;;;;;5030376;28;20197;-74
2021/01/15 10:43:27;;;;;;;0.65;0.65;;;12.10;99.90;;;;;;5030501;28;20166;-74
2021/01/15 10:45:54;;;;;;;2.85;2.60;;;10.80;99.90;;;;;;5021650;28;20290;-73
2021/01/15 10:48:20;;;;;;;1.23;1.15;;;9.70;99.90;;;;;;5025073;28;20182;-73
2021/01/15 10:50:46;;;;;;;0.70;0.70;;;8.60;99.90;;;;;;5008384;28;20242;-73
2021/01/15 10:53:12;;;;;;;3.78;1.55;;;8.80;99.90;;;;;;5010028;28;20265;-72
2021/01/15 10:55:38;;;;;;;0.82;0.40;;;9.10;99.90;;;;;;5010168;28;20158;-72
2021/01/15 10:58:05;;;;;;;0.57;0.57;;;8.50;99.90;;;;;;5010339;28;20163;-72
2021/01/15 11:00:31;;;;;;;0.88;0.63;;;7.80;99.90;;;;;;5025301;28;20178;-71
2021/01/15 11:02:57;;;;;;;0.75;0.75;;;6.90;99.90;;;;;;5009056;28;20257;-71
2021/01/15 11:05:23;;;;;;;0.90;0.90;;;6.10;99.90;;;;;;5010336;28;20167;-71
2021/01/15 11:07:49;;;;;;;2.53;0.75;;;5.60;99.90;;;;;;5009860;28;20225;-72
2021/01/15 11:10:15;;;;;;;0.40;0.40;;;5.50;99.90;;;;;;5010090;28;20167;-73
2021/01/15 11:12:41;;;;;;;1.85;1.42;;;5.30;99.90;;;;;;5009724;28;20270;-73
2021/01/15 11:15:08;;;;;;;1.50;1.17;;;5.20;99.90;;;;;;5008788;28;20221;-72
2021/01/15 11:17:38;;;;;;;0.10;0.10;;;5.00;99.90;;;;;;5010256;28;20169;-75
2021/01/15 11:20:07;;;;;;;0.88;0.88;;;4.80;99.90;;;;;;5010095;28;20628;-73
2021/01/15 11:22:34;;;;;;;1.50;0.88;;;5.40;99.90;;;;;;5008580;28;20262;-72
2021/01/15 11:25:00;;;;;;;3.72;0.75;;;6.10;99.90;;;;;;5008520;28;20167;-73
2021/01/15 11:27:26;;;;;;;2.90;1.70;;;7.50;99.90;;;;;;5009920;28;20163;-73
2021/01/15 11:29:52;;;;;;;0.20;0.20;;;7.80;99.90;;;;;;5018379;28;20197;-70
2021/01/15 11:32:18;;;;;;;2.65;0.98;;;9.20;99.90;;;;;;5029358;28;20674;-71
2021/01/15 11:34:45;;;;;;;0.60;0.60;;;10.40;99.90;;;;;;5029240;28;20192;-70
2021/01/15 11:37:11;;;;;;;0.80;0.80;;;11.20;99.90;;;;;;5029613;28;20154;-71
2021/01/15 11:39:36;;;;;;;0.47;0.47;;;11.60;99.90;;;;;;5029360;28;20162;-70
2021/01/15 11:42:03;;;;;;;0.65;0.65;;;11.90;99.90;;;;;;5028991;28;20285;-71
2021/01/15 11:44:28;;;;;;;2.28;1.25;;;11.50;99.90;;;;;;5029309;28;20166;-71
2021/01/15 11:46:54;;;;;;;0.55;0.55;;;10.10;99.90;;;;;;5029116;28;20166;-70
2021/01/15 11:49:20;;;;;;;4.75;2.47;;;9.00;99.90;;;;;;5043993;28;20169;-70
2021/01/15 11:51:46;;;;;;;0.63;0.63;;;7.90;99.90;;;;;;5044092;28;20213;-70
2021/01/15 11:54:16;;;;;;;0.10;0.10;;;7.00;99.90;;;;;;5044254;28;20186;-70
2021/01/15 11:56:42;;;;;;;0.10;0.10;;;5.80;99.90;;;;;;5029183;28;20158;-70
2021/01/15 11:59:10;;;;;;;0.10;0.10;;;4.90;99.90;;;;;;5029159;28;20177;-70
2021/01/15 12:01:36;;;;;;;1.48;1.40;;;4.30;99.90;;;;;;5044163;28;20268;-70
2021/01/15 12:04:04;;;;;;;0.15;0.15;;;3.60;99.90;;;;;;5044617;28;20231;-70
2021/01/15 12:06:29;;;;;;;0.10;0.10;;;3.50;99.90;;;;;;5029518;28;20154;-70
2021/01/15 12:08:56;;;;;;;0.10;0.10;;;3.30;99.90;;;;;;5044864;28;20614;-70
2021/01/15 12:11:21;;;;;;;0.10;0.10;;;3.20;99.90;;;;;;5044753;28;20253;-70
2021/01/15 12:13:47;;;;;;;0.10;0.10;;;3.20;99.90;;;;;;5029864;28;20193;-69
2021/01/15 12:16:14;;;;;;;0.10;0.10;;;3.20;99.90;;;;;;5029162;28;20221;-71
2021/01/15 12:18:40;;;;;;;0.10;0.10;;;3.40;99.90;;;;;;5029079;28;20178;-70
2021/01/15 12:21:06;;;;;;;0.32;0.32;;;3.30;99.90;;;;;;5028132;28;20671;-71
2021/01/15 12:23:32;;;;;;;0.10;0.10;;;3.40;99.90;;;;;;5043854;28;20177;-70
2021/01/15 12:26:01;;;;;;;0.10;0.10;;;3.60;99.90;;;;;;5028385;28;20202;-69
2021/01/15 12:28:27;;;;;;;0.17;0.17;;;3.50;99.90;;;;;;5028834;28;20221;-71
2021/01/15 12:30:53;;;;;;;0.10;0.10;;;3.60;99.90;;;;;;5028488;28;20177;-71
2021/01/15 12:33:21;;;;;;;0.10;0.10;;;3.50;99.90;;;;;;5028583;28;20559;-70
2021/01/15 12:35:48;;;;;;;0.45;0.43;;;3.30;99.90;;;;;;5028399;28;20193;-69
2021/01/15 12:38:17;;;;;;;0.10;0.10;;;3.40;99.90;;;;;;5028295;28;20173;-70
2021/01/15 12:40:44;;;;;;;0.10;0.10;;;3.50;99.90;;;;;;5042900;28;20167;-70
2021/01/15 12:43:10;;;;;;;0.10;0.10;;;3.40;99.90;;;;;;5026962;28;20192;-70
2021/01/15 12:45:38;;;;;;;0.10;0.10;;;3.30;99.90;;;;;;5028164;28;20154;-70
2021/01/15 12:48:05;;;;;;;0.10;0.10;;;3.30;99.90;;;;;;5028214;28;20224;-70
2021/01/15 12:50:32;;;;;;;0.10;0.10;;;3.50;99.90;;;;;;5026856;28;20177;-73
2021/01/15 12:52:58;;;;;;;1.17;1.17;;;3.80;99.90;;;;;;5028204;28;20589;-71
2021/01/15 12:55:30;;;;;;;0.10;0.10;;;4.00;99.90;;;;;;5028163;28;20158;-71
2021/01/15 12:58:00;;;;;;;0.10;0.10;;;4.10;99.90;;;;;;5027556;28;20173;-71
2021/01/15 13:00:27;;;;;;;0.32;0.32;;;3.90;99.90;;;;;;5028360;28;20163;-70
2021/01/15 13:02:53;;;;;;;0.10;0.10;;;3.70;99.90;;;;;;5027868;28;20169;-71